Terminal Aerodrome Forecast
Issued by NWS Atlanta, GA

Home | Current Version | Previous Version | Text Only | Print | Product List | Glossary On
Versions: 1 2 3 4 5 6 7 8 9 10 11 12 13 14 15 16 17 18 19 20 21 22 23 24 25 26 27 28 29 30 31 32 33 34 35
000
FTUS42 KFFC 040157 AAA
TAFATL
TAF AMD
KATL 040157Z 0402/0506 05007KT 6SM -RA OVC080
     FM040700 09009KT 5SM -RA OVC030
     FM041100 09012KT 5SM -RA BR BKN008 OVC025
     FM041500 09012G20KT 5SM -RA BR BKN006 OVC012
     FM041900 09012G20KT 3SM -RA BR OVC004=

USA.gov is the U.S. government's official web portal to all federal, state and local government web resources and services.